< < Back
Terminal Aerodrome Forecast


Current Version              Previous Versions:   1  2  3  4  5  6  7  8  9  

Terminal Aerodrome Forecast

695
FTUS44 KMOB 011000 AAA
TAFMOB
TAF AMD
KMOB 011022Z 0110/0206 10011KT P6SM OVC005
     FM011500 13012KT P6SM OVC009
     FM020100 07006KT 4SM BR OVC007=

Latest METAR

532
SAUS80 KWBC 011500 CCC
MTRMOB
METAR KMOB 011456Z 09009KT 3SM BR OVC003 09/09 A3038 RMK AO2 DZE18
SLP286 P0000 60000 T00940094 50008


USA.gov is the U.S. government's official web portal to all federal, state and local government web resources and services.